< < Back
Terminal Aerodrome Forecast


Current Version              Previous Versions:   1  2  3  4  5  6  7  8  9  

Terminal Aerodrome Forecast

003
FTUS42 KTAE 291130
TAFVLD
TAF
KVLD 291130Z 2912/3012 01007KT P6SM BKN080
     FM291400 03005KT P6SM FEW100=



Latest METAR

419
SAUS70 KWBC 301600
MTRVLD
METAR KVLD 301553Z VRB06KT 10SM FEW039 21/11 A3026 RMK AO2 SLP255
T02110111


USA.gov is the U.S. government's official web portal to all federal, state and local government web resources and services.